Time;durP1;ratioP1;P1;durP2;ratioP2;P2;SDS_P1;SDS_P2;PMS_P1;PMS_P2;Temp;Humidity;BMP_temperature;BMP_pressure;BME280_temperature;BME280_humidity;BME280_pressure;Samples;Min_cycle;Max_cycle;Signal;HPM_P1;HPM_P2
2023/12/23 00:00:05;;;;;;;13.40;2.65;;;6.70;85.00;;;;;;5113031;27;20078;-86
2023/12/23 00:02:30;;;;;;;15.25;3.60;;;6.60;84.90;;;;;;5110583;27;20515;-86
2023/12/23 00:04:56;;;;;;;17.48;4.05;;;6.60;84.90;;;;;;5090205;27;20051;-87
2023/12/23 00:07:21;;;;;;;18.23;3.15;;;6.60;84.90;;;;;;5122838;28;20043;-88
2023/12/23 00:09:47;;;;;;;12.07;2.30;;;6.60;84.80;;;;;;5098382;27;20047;-86
2023/12/23 00:12:13;;;;;;;11.73;2.40;;;6.70;84.80;;;;;;5090341;27;20036;-87
2023/12/23 00:14:38;;;;;;;15.00;3.05;;;6.70;84.90;;;;;;5106445;27;20501;-88
2023/12/23 00:17:04;;;;;;;15.70;3.90;;;7.40;85.40;;;;;;5093019;27;20036;-87
2023/12/23 00:19:30;;;;;;;9.50;2.08;;;6.70;85.00;;;;;;5087603;27;20159;-87
2023/12/23 00:21:55;;;;;;;11.95;1.90;;;6.70;85.00;;;;;;5105595;27;20058;-87
2023/12/23 00:24:24;;;;;;;9.07;1.73;;;6.70;85.00;;;;;;5107766;27;20038;-87
2023/12/23 00:26:50;;;;;;;19.13;3.88;;;6.70;85.00;;;;;;5114278;27;20075;-87
2023/12/23 00:29:15;;;;;;;16.35;2.38;;;6.70;85.00;;;;;;5090333;27;20067;-88
2023/12/23 00:31:41;;;;;;;11.48;1.92;;;6.70;85.10;;;;;;5091347;27;20159;-87
2023/12/23 00:34:07;;;;;;;14.82;2.28;;;6.70;85.20;;;;;;5090566;27;20031;-87
2023/12/23 00:36:33;;;;;;;10.63;1.50;;;6.70;85.30;;;;;;5092018;27;20104;-87
2023/12/23 00:38:59;;;;;;;13.93;2.80;;;7.20;85.70;;;;;;5110069;27;20050;-87
2023/12/23 00:41:24;;;;;;;11.68;2.38;;;6.70;85.50;;;;;;5113316;27;20047;-87
2023/12/23 00:43:50;;;;;;;8.52;1.95;;;6.20;85.20;;;;;;5095086;27;20040;-87
2023/12/23 00:46:16;;;;;;;11.40;2.25;;;7.50;86.00;;;;;;5093294;27;20031;-87
2023/12/23 00:48:42;;;;;;;15.45;3.15;;;7.00;85.80;;;;;;5093059;27;20038;-87
2023/12/23 00:51:09;;;;;;;12.23;2.03;;;7.00;85.80;;;;;;5083170;28;20058;-87
2023/12/23 00:53:34;;;;;;;14.95;2.38;;;7.30;86.00;;;;;;5091992;27;20398;-87
2023/12/23 00:56:00;;;;;;;12.77;2.00;;;6.70;85.60;;;;;;5090367;27;20046;-87
2023/12/23 00:58:26;;;;;;;13.70;2.42;;;6.80;85.60;;;;;;5095188;27;20039;-87
2023/12/23 01:00:52;;;;;;;12.20;1.80;;;7.10;85.80;;;;;;5097410;27;20039;-87
2023/12/23 01:03:17;;;;;;;11.88;1.92;;;7.00;85.60;;;;;;5091159;28;20043;-87
2023/12/23 01:05:43;;;;;;;11.65;1.85;;;7.20;85.70;;;;;;5110602;27;20537;-87
2023/12/23 01:08:09;;;;;;;9.25;1.60;;;7.00;85.40;;;;;;5091953;27;20071;-87
2023/12/23 01:10:35;;;;;;;14.05;1.77;;;7.20;85.50;;;;;;5089719;27;20043;-87
2023/12/23 01:13:01;;;;;;;7.75;1.83;;;7.20;85.50;;;;;;5108445;28;20039;-88
2023/12/23 01:15:26;;;;;;;14.20;2.35;;;7.00;85.20;;;;;;5085563;27;20489;-87
2023/12/23 01:17:52;;;;;;;8.73;1.92;;;6.80;85.10;;;;;;5092316;27;20035;-87
2023/12/23 01:20:18;;;;;;;9.75;1.52;;;7.00;85.10;;;;;;5102132;28;20047;-87
2023/12/23 01:22:47;;;;;;;10.23;1.90;;;6.40;84.70;;;;;;5105690;27;20035;-87
2023/12/23 01:25:12;;;;;;;12.40;2.22;;;7.00;85.10;;;;;;5088596;27;20031;-87
2023/12/23 01:27:38;;;;;;;11.55;1.95;;;6.60;84.80;;;;;;5088382;27;20043;-87
2023/12/23 01:30:05;;;;;;;10.40;1.98;;;6.80;84.90;;;;;;5092489;27;20074;-87
2023/12/23 01:32:31;;;;;;;8.95;1.45;;;6.40;84.70;;;;;;5106989;27;20057;-87
2023/12/23 01:34:57;;;;;;;7.25;1.85;;;7.20;85.20;;;;;;5085926;28;20490;-87
2023/12/23 01:37:23;;;;;;;7.90;2.03;;;7.50;85.40;;;;;;5104711;28;20526;-87
2023/12/23 01:39:48;;;;;;;10.60;1.88;;;7.30;85.30;;;;;;5087143;28;20075;-87
2023/12/23 01:42:14;;;;;;;10.48;1.80;;;6.30;84.70;;;;;;5103821;28;20074;-87
2023/12/23 01:44:40;;;;;;;14.10;1.95;;;7.40;85.40;;;;;;5101328;28;20122;-87
2023/12/23 01:47:06;;;;;;;11.82;1.98;;;7.00;85.20;;;;;;5088213;28;20043;-87
2023/12/23 01:49:33;;;;;;;8.65;1.50;;;7.40;85.60;;;;;;5086592;28;20096;-87
2023/12/23 01:52:00;;;;;;;9.52;1.80;;;6.90;85.40;;;;;;5100242;28;20054;-87
2023/12/23 01:54:28;;;;;;;7.90;1.90;;;6.80;85.50;;;;;;5086812;28;20031;-87
2023/12/23 01:56:54;;;;;;;9.90;1.60;;;7.00;85.70;;;;;;5108826;28;20088;-87
2023/12/23 01:59:20;;;;;;;7.25;1.27;;;6.90;85.70;;;;;;5088675;28;20040;-87
2023/12/23 02:01:48;;;;;;;6.18;1.15;;;6.90;85.70;;;;;;5084529;28;20115;-87
2023/12/23 02:04:13;;;;;;;12.55;1.90;;;6.70;85.60;;;;;;5083181;28;20118;-87
2023/12/23 02:06:42;;;;;;;10.65;1.52;;;7.40;86.10;;;;;;5086410;28;20070;-87
2023/12/23 02:09:08;;;;;;;8.00;1.17;;;7.50;86.20;;;;;;5087237;28;20066;-87
2023/12/23 02:11:53;;;;;;;9.65;1.92;;;7.10;86.00;;;;;;5091584;28;20039;-87
2023/12/23 02:14:35;;;;;;;7.32;1.42;;;6.50;85.70;;;;;;5080573;28;20062;-87
2023/12/23 02:17:01;;;;;;;6.65;1.67;;;7.70;86.50;;;;;;5086032;28;20159;-87
2023/12/23 02:19:27;;;;;;;11.27;1.58;;;6.90;86.00;;;;;;5086282;28;20058;-87
2023/12/23 02:21:53;;;;;;;11.48;2.08;;;6.90;86.00;;;;;;5090629;28;20032;-87
2023/12/23 02:24:19;;;;;;;7.80;1.42;;;6.90;86.10;;;;;;5101791;28;20395;-87
2023/12/23 02:26:50;;;;;;;7.82;1.45;;;7.70;86.80;;;;;;5084609;28;20035;-87
2023/12/23 02:29:18;;;;;;;9.65;1.75;;;7.00;86.40;;;;;;5094806;28;20024;-87
2023/12/23 02:31:44;;;;;;;10.60;1.33;;;6.90;86.70;;;;;;5096080;28;20140;-87
2023/12/23 02:34:11;;;;;;;7.18;1.48;;;7.70;87.40;;;;;;5092482;28;20039;-86
2023/12/23 02:36:38;;;;;;;8.93;1.33;;;6.70;87.10;;;;;;5118930;28;20131;-86
2023/12/23 02:39:04;;;;;;;8.15;1.58;;;6.90;87.60;;;;;;5087769;28;20074;-87
2023/12/23 02:41:30;;;;;;;6.45;1.30;;;7.70;88.20;;;;;;5094082;28;20044;-87
2023/12/23 02:43:55;;;;;;;7.50;1.17;;;6.90;87.90;;;;;;5107209;28;20437;-87
2023/12/23 02:46:21;;;;;;;9.15;1.77;;;6.90;88.40;;;;;;5106469;28;20028;-87
2023/12/23 02:48:47;;;;;;;8.63;1.58;;;6.90;88.30;;;;;;5104920;28;20043;-87
2023/12/23 02:51:13;;;;;;;4.57;1.40;;;6.90;88.40;;;;;;5106094;28;20039;-87
2023/12/23 02:53:38;;;;;;;6.22;1.70;;;6.90;88.60;;;;;;5086804;28;20068;-86
2023/12/23 02:56:04;;;;;;;6.57;1.15;;;6.90;88.70;;;;;;5106807;28;20024;-86
2023/12/23 02:58:30;;;;;;;5.30;0.75;;;6.90;88.90;;;;;;5085036;28;20115;-88
2023/12/23 03:00:56;;;;;;;7.68;1.13;;;7.00;89.10;;;;;;5090850;28;20067;-88
2023/12/23 03:03:21;;;;;;;5.63;1.10;;;7.00;89.30;;;;;;5088632;28;20028;-88
2023/12/23 03:05:47;;;;;;;7.50;1.38;;;7.00;89.40;;;;;;5085961;28;20048;-87
2023/12/23 03:08:12;;;;;;;7.45;1.38;;;7.40;89.70;;;;;;5089126;28;20039;-87
2023/12/23 03:10:38;;;;;;;5.90;1.10;;;6.90;89.60;;;;;;5106871;28;20539;-87
2023/12/23 03:13:03;;;;;;;6.50;1.23;;;7.00;89.80;;;;;;5083673;28;20040;-87
2023/12/23 03:15:29;;;;;;;5.63;1.52;;;6.90;89.80;;;;;;5105820;28;20061;-87
2023/12/23 03:17:55;;;;;;;7.53;1.42;;;7.00;90.00;;;;;;5090041;28;20047;-87
2023/12/23 03:20:20;;;;;;;9.05;1.60;;;7.00;90.00;;;;;;5104693;28;20036;-87
2023/12/23 03:22:46;;;;;;;8.23;1.73;;;7.00;90.10;;;;;;5090744;28;20461;-87
2023/12/23 03:25:12;;;;;;;5.38;1.13;;;7.00;90.10;;;;;;5103831;28;20036;-87
2023/12/23 03:27:37;;;;;;;7.13;1.67;;;7.00;90.20;;;;;;5091619;28;20465;-87
2023/12/23 03:30:09;;;;;;;7.25;1.30;;;7.00;90.20;;;;;;5086447;28;20039;-87
2023/12/23 03:32:34;;;;;;;6.38;1.25;;;7.00;90.30;;;;;;5092785;28;20038;-87
2023/12/23 03:35:00;;;;;;;7.03;1.58;;;7.00;90.30;;;;;;5091212;28;20036;-87
2023/12/23 03:37:25;;;;;;;5.65;1.42;;;7.00;90.40;;;;;;5088425;28;20046;-87
2023/12/23 03:39:51;;;;;;;6.28;1.27;;;7.00;90.40;;;;;;5089498;28;20127;-87
2023/12/23 03:42:21;;;;;;;4.05;1.35;;;7.00;90.50;;;;;;5115919;28;20085;-87
2023/12/23 03:44:47;;;;;;;6.82;1.30;;;7.10;90.50;;;;;;5088262;28;20039;-87
2023/12/23 03:47:13;;;;;;;7.35;1.40;;;7.00;90.50;;;;;;5085490;28;20085;-87
2023/12/23 03:49:39;;;;;;;7.53;1.77;;;7.00;90.60;;;;;;5102706;28;20047;-88
2023/12/23 03:52:05;;;;;;;6.18;1.30;;;7.00;90.60;;;;;;5085862;28;20036;-88
2023/12/23 03:54:31;;;;;;;3.25;0.90;;;7.00;90.70;;;;;;5090360;28;20043;-88
2023/12/23 03:56:56;;;;;;;3.20;0.95;;;7.10;90.70;;;;;;5098764;28;20028;-87
2023/12/23 03:59:22;;;;;;;5.15;0.82;;;7.10;90.70;;;;;;5088388;28;20119;-87
2023/12/23 04:01:47;;;;;;;3.95;0.88;;;7.10;90.80;;;;;;5089303;28;20028;-87
2023/12/23 04:04:13;;;;;;;2.03;0.70;;;7.10;90.80;;;;;;5087909;28;20513;-88
2023/12/23 04:06:39;;;;;;;3.22;0.90;;;7.10;90.80;;;;;;5086476;28;20051;-88
2023/12/23 04:09:06;;;;;;;4.72;0.93;;;7.10;90.90;;;;;;5090894;28;20027;-87
2023/12/23 04:11:35;;;;;;;4.57;1.00;;;7.20;90.90;;;;;;5086984;28;20039;-87
2023/12/23 04:14:00;;;;;;;5.70;1.00;;;7.20;90.90;;;;;;5088154;28;20110;-87
2023/12/23 04:16:26;;;;;;;4.68;1.40;;;7.10;90.90;;;;;;5104190;28;20462;-87
2023/12/23 04:18:52;;;;;;;3.05;0.70;;;7.10;90.90;;;;;;5088053;28;20039;-87
2023/12/23 04:21:17;;;;;;;3.25;0.70;;;7.20;90.90;;;;;;5091655;28;20019;-88
2023/12/23 04:23:43;;;;;;;3.60;0.80;;;7.20;90.90;;;;;;5089787;28;20153;-88
2023/12/23 04:26:10;;;;;;;3.97;1.30;;;7.20;90.90;;;;;;5091732;28;20039;-88
2023/12/23 04:28:36;;;;;;;2.75;0.75;;;7.20;91.00;;;;;;5091187;28;20035;-89
2023/12/23 04:31:02;;;;;;;3.80;1.00;;;7.20;91.00;;;;;;5095571;28;20074;-88
2023/12/23 04:33:28;;;;;;;3.30;0.80;;;7.20;91.00;;;;;;5095145;28;20039;-87
2023/12/23 04:35:53;;;;;;;2.85;1.15;;;7.20;91.00;;;;;;5109153;28;20038;-87
2023/12/23 04:38:19;;;;;;;3.70;0.75;;;7.20;91.00;;;;;;5105829;28;20060;-88
2023/12/23 04:40:45;;;;;;;1.75;0.60;;;7.20;91.00;;;;;;5113990;28;20036;-87
2023/12/23 04:43:10;;;;;;;5.00;0.73;;;7.20;91.00;;;;;;5093300;28;20039;-88
2023/12/23 04:45:37;;;;;;;1.50;0.52;;;7.20;91.00;;;;;;5090532;28;20547;-88
2023/12/23 04:48:03;;;;;;;2.30;0.57;;;7.70;91.10;;;;;;5086941;28;20045;-88
2023/12/23 04:50:29;;;;;;;1.73;0.50;;;6.90;90.90;;;;;;5101156;28;20066;-88
2023/12/23 04:52:55;;;;;;;1.90;0.60;;;7.30;91.00;;;;;;5084174;28;20092;-88
2023/12/23 04:55:20;;;;;;;1.25;0.43;;;7.90;91.20;;;;;;5102979;28;20539;-88
2023/12/23 04:57:46;;;;;;;1.67;0.63;;;7.90;91.20;;;;;;5089152;28;20150;-88
2023/12/23 05:00:12;;;;;;;2.03;0.70;;;6.70;90.90;;;;;;5087918;28;20059;-88
2023/12/23 05:02:38;;;;;;;3.05;0.63;;;7.30;91.10;;;;;;5093650;28;20032;-88
2023/12/23 05:05:04;;;;;;;1.55;0.68;;;7.30;91.10;;;;;;5086209;28;20054;-88
2023/12/23 05:07:30;;;;;;;2.55;1.00;;;7.30;91.30;;;;;;5085125;28;20486;-88
2023/12/23 05:09:55;;;;;;;5.28;1.80;;;7.30;91.40;;;;;;5084441;28;20043;-88
2023/12/23 05:12:22;;;;;;;4.00;1.52;;;7.70;91.80;;;;;;5102974;28;20031;-89
2023/12/23 05:14:49;;;;;;;11.93;3.10;;;7.40;92.00;;;;;;5088680;28;20496;-89
2023/12/23 05:17:14;;;;;;;12.75;3.42;;;7.50;92.10;;;;;;5084009;28;20152;-89
2023/12/23 05:19:41;;;;;;;12.65;3.33;;;7.60;92.40;;;;;;5095085;28;20506;-89
2023/12/23 05:22:07;;;;;;;18.17;3.85;;;7.70;92.60;;;;;;5113638;28;20040;-89
2023/12/23 05:24:33;;;;;;;11.75;3.67;;;7.80;92.90;;;;;;5096588;28;20076;-89
2023/12/23 05:26:58;;;;;;;11.20;3.38;;;7.90;93.00;;;;;;5105198;28;20040;-88
2023/12/23 05:29:24;;;;;;;13.55;3.13;;;7.90;92.90;;;;;;5092527;28;20043;-89
2023/12/23 05:31:50;;;;;;;16.02;3.70;;;8.00;93.00;;;;;;5092524;28;20028;-89
2023/12/23 05:34:16;;;;;;;14.73;3.45;;;8.10;93.30;;;;;;5090063;28;20042;-89
2023/12/23 05:36:42;;;;;;;14.43;3.90;;;8.10;93.30;;;;;;5083793;28;20080;-89
2023/12/23 05:39:08;;;;;;;9.57;3.15;;;8.20;93.40;;;;;;5083991;28;20048;-89
2023/12/23 05:41:33;;;;;;;14.88;3.83;;;8.30;93.30;;;;;;5086597;28;20043;-89
2023/12/23 05:43:59;;;;;;;20.42;3.58;;;8.30;93.30;;;;;;5087784;28;20043;-89
2023/12/23 05:46:25;;;;;;;18.63;4.70;;;8.60;93.40;;;;;;5087707;28;20036;-89
2023/12/23 05:48:51;;;;;;;16.23;4.35;;;8.40;93.40;;;;;;5086207;28;20111;-89
2023/12/23 05:51:16;;;;;;;22.33;5.15;;;9.30;93.60;;;;;;5095992;28;20486;-90
2023/12/23 05:53:42;;;;;;;20.50;5.55;;;8.50;93.50;;;;;;5085246;28;20032;-90
2023/12/23 05:56:08;;;;;;;18.92;4.15;;;8.50;93.50;;;;;;5084237;28;20035;-90
2023/12/23 05:58:35;;;;;;;21.50;4.25;;;8.60;93.50;;;;;;5087493;28;20106;-89
2023/12/23 06:01:05;;;;;;;20.50;4.25;;;8.60;93.50;;;;;;5087877;28;20040;-91
2023/12/23 06:03:30;;;;;;;21.73;4.47;;;8.70;93.50;;;;;;5085484;28;20036;-89
2023/12/23 06:05:56;;;;;;;26.17;4.65;;;8.70;93.50;;;;;;5087464;28;20414;-89
2023/12/23 06:08:21;;;;;;;26.55;5.80;;;8.70;93.50;;;;;;5087314;28;20035;-90
2023/12/23 06:10:47;;;;;;;28.25;5.00;;;8.70;93.50;;;;;;5086833;28;20032;-90
2023/12/23 06:13:13;;;;;;;24.73;4.63;;;8.80;93.60;;;;;;5086653;28;20104;-90
2023/12/23 06:15:38;;;;;;;21.20;3.88;;;8.80;93.60;;;;;;5084957;28;20040;-89
2023/12/23 06:18:05;;;;;;;28.15;4.43;;;8.80;93.60;;;;;;5106516;28;20406;-89
2023/12/23 06:20:30;;;;;;;22.42;4.72;;;8.90;93.60;;;;;;5111227;28;20048;-89
2023/12/23 06:22:56;;;;;;;19.23;4.93;;;8.90;93.60;;;;;;5094567;28;20051;-90
2023/12/23 06:25:21;;;;;;;25.38;5.75;;;8.90;93.60;;;;;;5103528;28;20111;-89
2023/12/23 06:27:47;;;;;;;22.00;4.65;;;8.90;93.60;;;;;;5083877;28;20040;-90
2023/12/23 06:30:13;;;;;;;19.58;3.97;;;8.90;93.60;;;;;;5088943;28;20028;-89
2023/12/23 06:32:39;;;;;;;24.48;4.18;;;8.90;93.80;;;;;;5087374;28;20093;-90
2023/12/23 06:35:04;;;;;;;18.13;5.00;;;9.00;93.60;;;;;;5083281;28;20027;-90
2023/12/23 06:37:31;;;;;;;21.15;4.20;;;9.00;93.60;;;;;;5099536;28;20051;-89
2023/12/23 06:39:57;;;;;;;23.33;4.15;;;9.10;93.70;;;;;;5084219;28;20115;-90
2023/12/23 06:42:23;;;;;;;19.10;3.92;;;9.00;93.60;;;;;;5086168;28;20036;-90
2023/12/23 06:44:48;;;;;;;17.58;3.63;;;9.10;93.60;;;;;;5089550;28;20097;-89
2023/12/23 06:47:14;;;;;;;18.05;4.15;;;9.10;93.60;;;;;;5098725;28;20394;-89
2023/12/23 06:49:39;;;;;;;20.13;4.13;;;9.10;93.50;;;;;;5090224;28;20482;-90
2023/12/23 06:52:06;;;;;;;17.58;3.63;;;9.10;93.60;;;;;;5085441;28;20036;-89
2023/12/23 06:54:31;;;;;;;22.05;4.47;;;9.10;93.50;;;;;;5107767;28;20039;-89
2023/12/23 06:56:57;;;;;;;16.83;5.78;;;9.10;93.50;;;;;;5111458;28;20070;-89
2023/12/23 06:59:23;;;;;;;20.92;3.53;;;9.20;93.50;;;;;;5099848;28;20036;-89
2023/12/23 07:01:48;;;;;;;20.17;4.35;;;9.20;93.50;;;;;;5097538;28;20080;-89
2023/12/23 07:04:14;;;;;;;27.88;4.93;;;9.20;93.50;;;;;;5093123;28;20032;-89
2023/12/23 07:06:40;;;;;;;23.77;4.85;;;9.20;93.50;;;;;;5091309;28;20044;-90
2023/12/23 07:09:05;;;;;;;18.92;3.45;;;9.20;93.50;;;;;;5083656;28;20072;-89
2023/12/23 07:11:31;;;;;;;19.65;4.03;;;9.00;93.40;;;;;;5086864;28;20560;-89
2023/12/23 07:13:56;;;;;;;23.42;4.85;;;9.40;93.50;;;;;;5085025;28;20036;-89
2023/12/23 07:16:22;;;;;;;24.48;4.00;;;9.50;93.60;;;;;;5085740;28;20031;-89
2023/12/23 07:18:48;;;;;;;28.92;4.45;;;9.20;93.40;;;;;;5086044;28;20065;-89
2023/12/23 07:21:13;;;;;;;24.67;5.28;;;9.30;93.50;;;;;;5101063;28;20475;-89
2023/12/23 07:23:39;;;;;;;21.50;3.95;;;9.30;93.40;;;;;;5090067;28;20035;-89
2023/12/23 07:26:05;;;;;;;22.30;4.13;;;9.80;93.60;;;;;;5096659;28;20132;-89
2023/12/23 07:28:30;;;;;;;27.65;5.78;;;9.30;93.40;;;;;;5088962;28;20506;-89
2023/12/23 07:30:56;;;;;;;23.40;4.35;;;9.30;93.40;;;;;;5086646;28;20067;-89
2023/12/23 07:33:22;;;;;;;19.55;4.10;;;9.30;93.40;;;;;;5090249;28;20036;-89
2023/12/23 07:35:48;;;;;;;21.52;3.55;;;9.40;93.50;;;;;;5089128;28;20488;-89
2023/12/23 07:38:14;;;;;;;23.88;5.78;;;9.80;93.60;;;;;;5089476;28;20052;-89
2023/12/23 07:40:40;;;;;;;21.70;5.13;;;9.40;93.50;;;;;;5089276;28;20048;-89
2023/12/23 07:43:06;;;;;;;26.60;4.85;;;9.40;93.40;;;;;;5085215;28;20127;-90
2023/12/23 07:45:32;;;;;;;25.40;4.63;;;9.40;93.40;;;;;;5086074;28;20063;-89
2023/12/23 07:47:57;;;;;;;20.05;4.47;;;9.50;93.40;;;;;;5091735;28;20036;-90
2023/12/23 07:50:23;;;;;;;17.27;3.88;;;9.50;93.40;;;;;;5090762;28;20340;-89
2023/12/23 07:52:49;;;;;;;19.15;4.43;;;9.50;93.40;;;;;;5091833;28;20035;-89
2023/12/23 07:55:15;;;;;;;19.58;3.72;;;9.50;93.40;;;;;;5089356;28;20032;-89
2023/12/23 07:57:42;;;;;;;20.08;3.55;;;9.60;93.40;;;;;;5086458;28;20036;-89
2023/12/23 08:00:09;;;;;;;20.48;3.45;;;9.60;93.40;;;;;;5091823;28;20051;-89
2023/12/23 08:02:35;;;;;;;22.45;4.90;;;9.50;93.30;;;;;;5088363;28;20035;-89
2023/12/23 08:05:02;;;;;;;19.63;4.25;;;9.60;93.30;;;;;;5109687;28;20042;-89
2023/12/23 08:07:28;;;;;;;21.50;4.18;;;9.60;93.30;;;;;;5099538;28;20044;-89
2023/12/23 08:09:53;;;;;;;21.40;3.50;;;9.60;93.30;;;;;;5103623;28;20032;-89
2023/12/23 08:12:19;;;;;;;22.85;3.97;;;9.60;93.30;;;;;;5099150;28;20031;-88
2023/12/23 08:14:45;;;;;;;19.83;3.75;;;9.60;93.30;;;;;;5087048;28;20460;-89
2023/12/23 08:17:11;;;;;;;18.90;3.60;;;9.60;93.20;;;;;;5102944;28;20043;-89
2023/12/23 08:19:37;;;;;;;16.70;3.85;;;9.60;93.20;;;;;;5110963;28;20039;-89
2023/12/23 08:22:03;;;;;;;15.55;3.70;;;9.60;93.20;;;;;;5102451;28;20035;-89
2023/12/23 08:24:28;;;;;;;17.27;3.60;;;9.60;93.20;;;;;;5085256;28;20035;-89
2023/12/23 08:26:54;;;;;;;17.92;4.05;;;10.30;93.40;;;;;;5105619;28;20074;-89
2023/12/23 08:29:20;;;;;;;18.65;3.97;;;9.80;93.20;;;;;;5087219;28;20165;-89
2023/12/23 08:31:46;;;;;;;17.58;4.18;;;9.60;93.10;;;;;;5086931;28;20118;-89
2023/12/23 08:34:12;;;;;;;21.45;3.47;;;9.90;93.10;;;;;;5085394;28;20404;-88
2023/12/23 08:36:38;;;;;;;19.55;3.42;;;9.70;93.00;;;;;;5088703;28;20061;-89
2023/12/23 08:39:03;;;;;;;19.00;3.40;;;9.70;93.00;;;;;;5088953;28;20465;-88
2023/12/23 08:41:29;;;;;;;19.60;4.72;;;9.70;93.00;;;;;;5083491;28;20040;-88
2023/12/23 08:43:54;;;;;;;16.45;4.00;;;9.70;92.90;;;;;;5087590;28;20135;-88
2023/12/23 08:46:20;;;;;;;17.63;3.13;;;9.70;92.90;;;;;;5087941;28;20032;-89
2023/12/23 08:48:46;;;;;;;13.52;3.63;;;9.70;92.80;;;;;;5092570;28;20135;-88
2023/12/23 08:51:11;;;;;;;17.05;3.88;;;9.70;92.70;;;;;;5085597;28;20414;-88
2023/12/23 08:53:37;;;;;;;18.58;3.30;;;9.70;92.60;;;;;;5091567;28;20085;-87
2023/12/23 08:56:03;;;;;;;18.08;3.47;;;9.80;92.60;;;;;;5087122;28;20110;-88
2023/12/23 08:58:30;;;;;;;21.38;3.92;;;9.80;92.50;;;;;;5089838;28;20454;-89
2023/12/23 09:00:57;;;;;;;22.52;3.45;;;9.80;92.40;;;;;;5087488;28;20080;-89
2023/12/23 09:03:22;;;;;;;16.38;4.07;;;9.80;92.30;;;;;;5086482;28;20035;-88
2023/12/23 09:05:48;;;;;;;19.48;3.88;;;9.90;92.20;;;;;;5102895;28;20034;-89
2023/12/23 09:08:14;;;;;;;19.58;3.42;;;9.90;92.10;;;;;;5094374;28;20043;-89
2023/12/23 09:10:39;;;;;;;21.90;4.07;;;9.90;91.90;;;;;;5094417;28;20110;-89
2023/12/23 09:13:05;;;;;;;25.55;3.47;;;9.90;91.90;;;;;;5109096;28;20036;-89
2023/12/23 09:15:31;;;;;;;16.65;3.40;;;9.90;91.80;;;;;;5108412;28;20066;-89
2023/12/23 09:17:56;;;;;;;21.00;3.35;;;9.90;91.80;;;;;;5108842;28;20039;-88
2023/12/23 09:20:22;;;;;;;17.48;3.88;;;9.90;91.70;;;;;;5112934;28;20031;-88
2023/12/23 09:22:48;;;;;;;20.65;4.13;;;9.90;91.60;;;;;;5095809;28;20513;-88
2023/12/23 09:25:13;;;;;;;18.25;3.53;;;10.20;91.60;;;;;;5107755;28;20036;-89
2023/12/23 09:27:39;;;;;;;16.52;4.20;;;10.00;91.40;;;;;;5091932;28;20048;-89
2023/12/23 09:30:05;;;;;;;18.33;3.97;;;10.00;91.40;;;;;;5089511;28;20427;-88
2023/12/23 09:32:31;;;;;;;12.18;2.78;;;10.00;91.30;;;;;;5091551;28;20035;-88
2023/12/23 09:34:57;;;;;;;18.67;4.70;;;10.00;91.10;;;;;;5099977;28;20072;-88
2023/12/23 09:37:22;;;;;;;14.75;2.95;;;10.00;91.10;;;;;;5094478;28;20118;-89
2023/12/23 09:39:48;;;;;;;9.98;2.63;;;10.10;91.00;;;;;;5092145;27;20035;-88
2023/12/23 09:42:14;;;;;;;15.30;3.38;;;10.00;90.90;;;;;;5105741;27;20065;-88
2023/12/23 09:44:40;;;;;;;14.98;4.03;;;10.00;90.90;;;;;;5101449;27;20115;-88
2023/12/23 09:47:07;;;;;;;15.18;3.90;;;10.10;90.80;;;;;;5105671;27;20019;-88
2023/12/23 09:49:33;;;;;;;16.00;3.03;;;10.00;90.80;;;;;;5109899;28;20039;-89
2023/12/23 09:51:59;;;;;;;18.65;3.05;;;10.00;90.70;;;;;;5094413;28;20031;-89
2023/12/23 09:54:29;;;;;;;18.65;4.70;;;10.00;90.60;;;;;;5096482;27;20023;-89
2023/12/23 09:56:55;;;;;;;14.98;2.95;;;10.10;90.70;;;;;;5091883;28;20155;-88
2023/12/23 09:59:23;;;;;;;18.38;3.33;;;10.10;90.60;;;;;;5098886;27;20065;-88
2023/12/23 10:01:48;;;;;;;19.60;3.55;;;10.10;90.40;;;;;;5096788;28;20035;-88
2023/12/23 10:04:17;;;;;;;13.63;3.55;;;10.00;90.30;;;;;;5096686;28;20058;-88
2023/12/23 10:06:43;;;;;;;17.33;3.53;;;10.00;90.30;;;;;;5109148;28;20534;-88
2023/12/23 10:09:10;;;;;;;16.55;3.25;;;10.20;90.20;;;;;;5096570;28;20149;-88
2023/12/23 10:11:36;;;;;;;17.33;4.15;;;9.90;90.10;;;;;;5109140;28;20027;-87
2023/12/23 10:14:01;;;;;;;18.45;3.28;;;9.90;90.20;;;;;;5089753;28;20038;-92
2023/12/23 10:16:27;;;;;;;17.42;3.70;;;10.50;90.30;;;;;;5089975;28;20050;-91
2023/12/23 10:18:59;;;;;;;18.73;3.78;;;10.60;90.40;;;;;;5125702;28;20035;-91
2023/12/23 10:21:26;;;;;;;16.90;3.65;;;9.10;90.00;;;;;;5091341;28;20063;-91
2023/12/23 10:23:53;;;;;;;17.17;3.70;;;9.80;90.30;;;;;;5089291;28;20057;-90
2023/12/23 10:26:22;;;;;;;21.55;3.63;;;9.50;90.30;;;;;;5109403;28;20097;-92
2023/12/23 10:29:03;;;;;;;24.52;4.00;;;9.70;90.40;;;;;;5098419;28;20066;-90
2023/12/23 10:31:31;;;;;;;18.65;3.38;;;9.70;90.40;;;;;;5090305;28;20035;-91
2023/12/23 10:34:11;;;;;;;16.88;3.53;;;9.70;90.50;;;;;;5103180;28;20450;-91
2023/12/23 10:36:41;;;;;;;16.00;3.20;;;9.70;90.60;;;;;;5086775;28;20486;-91
2023/12/23 10:39:16;;;;;;;16.30;2.85;;;9.70;90.70;;;;;;5096336;28;20062;-91
2023/12/23 10:41:59;;;;;;;15.85;3.20;;;10.30;90.90;;;;;;5074788;28;20047;-89
2023/12/23 10:44:26;;;;;;;12.73;2.97;;;9.80;90.80;;;;;;5069470;28;20040;-91
2023/12/23 10:46:53;;;;;;;14.60;3.30;;;10.00;90.90;;;;;;5067902;28;20040;-90
2023/12/23 10:49:25;;;;;;;14.90;3.38;;;10.00;90.90;;;;;;5068525;28;20174;-91
2023/12/23 10:51:54;;;;;;;29.65;4.57;;;9.00;90.70;;;;;;5076102;28;20115;-91
2023/12/23 10:54:24;;;;;;;17.67;3.92;;;9.60;90.90;;;;;;5070307;28;20067;-90
2023/12/23 10:56:52;;;;;;;16.05;2.72;;;9.60;90.90;;;;;;5074912;28;20483;-91
2023/12/23 10:59:18;;;;;;;17.42;3.50;;;10.20;91.20;;;;;;5081596;28;20096;-91
2023/12/23 11:01:46;;;;;;;16.48;3.05;;;9.60;91.10;;;;;;5080567;28;20044;-91
2023/12/23 11:04:15;;;;;;;17.02;3.63;;;9.60;91.10;;;;;;5072285;28;20399;-91
2023/12/23 11:06:45;;;;;;;14.57;3.15;;;9.60;91.20;;;;;;5094930;28;20062;-91
2023/12/23 11:09:15;;;;;;;19.48;3.38;;;10.40;91.40;;;;;;5070701;28;20036;-90
2023/12/23 11:11:42;;;;;;;16.88;3.28;;;9.60;91.30;;;;;;5070792;28;20040;-90
2023/12/23 11:14:08;;;;;;;18.83;3.58;;;9.10;91.20;;;;;;5073233;28;20028;-90
2023/12/23 11:16:37;;;;;;;20.17;3.53;;;9.60;91.30;;;;;;5076259;28;20035;-91
2023/12/23 11:19:04;;;;;;;15.13;2.92;;;10.30;91.50;;;;;;5070473;28;20533;-91
2023/12/23 11:21:30;;;;;;;22.27;4.82;;;9.70;91.30;;;;;;5076513;28;20062;-91
2023/12/23 11:24:02;;;;;;;17.38;3.45;;;10.00;91.40;;;;;;5073442;28;20040;-91
2023/12/23 11:26:40;;;;;;;20.65;4.65;;;10.30;91.40;;;;;;5075067;28;20024;-86
2023/12/23 15:15:45;;;;;;;12.85;2.53;;;9.90;91.80;;;;;;4894552;29;20041;-80
2023/12/23 15:18:11;;;;;;;15.65;3.15;;;9.90;91.70;;;;;;4889836;29;20044;-80
2023/12/23 15:20:37;;;;;;;13.82;2.67;;;9.90;91.70;;;;;;4890079;29;20045;-83
2023/12/23 15:23:02;;;;;;;13.57;2.63;;;9.90;91.70;;;;;;4898347;29;20072;-83
2023/12/23 15:25:28;;;;;;;13.70;2.47;;;9.90;91.60;;;;;;4865312;29;20069;-85
2023/12/23 15:27:53;;;;;;;13.75;2.53;;;9.90;91.60;;;;;;4864954;29;20069;-84
2023/12/23 15:30:19;;;;;;;13.38;2.22;;;10.30;91.70;;;;;;4881407;29;20045;-83
2023/12/23 15:32:45;;;;;;;14.63;2.20;;;9.90;91.50;;;;;;4872417;29;20128;-80
2023/12/23 15:35:11;;;;;;;12.75;2.83;;;9.90;91.50;;;;;;4882107;29;20044;-82
2023/12/23 15:37:36;;;;;;;19.33;2.85;;;10.00;91.50;;;;;;4886313;29;20485;-80
2023/12/23 15:40:02;;;;;;;11.95;2.42;;;9.90;91.40;;;;;;4878799;29;20041;-80
2023/12/23 15:42:28;;;;;;;16.60;2.20;;;10.00;91.40;;;;;;4865984;29;20036;-80
2023/12/23 15:44:54;;;;;;;12.88;2.15;;;10.00;91.40;;;;;;4880898;29;20052;-86
2023/12/23 15:47:20;;;;;;;8.85;1.95;;;10.30;91.40;;;;;;4887411;29;20047;-81
2023/12/23 15:49:45;;;;;;;15.25;2.63;;;10.00;91.30;;;;;;4883047;29;20128;-83
2023/12/23 15:52:11;;;;;;;11.43;2.33;;;10.00;91.30;;;;;;4886263;29;20077;-83
2023/12/23 15:54:36;;;;;;;10.93;1.95;;;10.00;91.20;;;;;;4871786;29;20055;-81
2023/12/23 15:57:04;;;;;;;9.73;1.98;;;10.00;91.20;;;;;;4887773;29;20041;-82
2023/12/23 15:59:30;;;;;;;12.70;2.50;;;10.00;91.20;;;;;;4882294;29;20052;-83
2023/12/23 16:01:55;;;;;;;10.70;2.00;;;10.20;91.20;;;;;;4868668;29;20051;-81
2023/12/23 16:04:21;;;;;;;9.82;2.63;;;10.00;91.20;;;;;;4882949;29;20534;-80
2023/12/23 16:06:47;;;;;;;12.50;2.72;;;10.60;91.40;;;;;;4886281;29;20040;-81
2023/12/23 16:09:15;;;;;;;10.45;2.38;;;10.10;91.20;;;;;;4908746;29;20037;-80
2023/12/23 16:11:41;;;;;;;11.63;2.67;;;10.00;91.20;;;;;;4881826;29;20128;-80
2023/12/23 16:14:06;;;;;;;7.05;1.92;;;10.00;91.30;;;;;;4880050;29;20081;-80
2023/12/23 16:16:32;;;;;;;12.88;2.50;;;10.00;91.30;;;;;;4872254;29;20112;-81
2023/12/23 16:18:58;;;;;;;10.88;2.30;;;10.00;91.30;;;;;;4887602;29;20128;-81
2023/12/23 16:21:23;;;;;;;14.65;2.42;;;10.00;91.30;;;;;;4861140;29;20037;-80
2023/12/23 16:23:49;;;;;;;8.25;2.15;;;10.00;91.40;;;;;;4883284;29;20069;-80
2023/12/23 16:26:16;;;;;;;7.63;2.00;;;10.20;91.50;;;;;;4876750;29;20116;-81
2023/12/23 16:28:42;;;;;;;10.18;2.67;;;10.00;91.40;;;;;;4875284;29;20044;-81